Time;durP1;ratioP1;P1;durP2;ratioP2;P2;SDS_P1;SDS_P2;PMS_P1;PMS_P2;Temp;Humidity;BMP_temperature;BMP_pressure;BME280_temperature;BME280_humidity;BME280_pressure;Samples;Min_cycle;Max_cycle;Signal;HPM_P1;HPM_P2
2021/05/09 00:01:27;;;;;;;3.22;1.75;;;;;;;11.45;93.47;97558.50;5104061;28;20028;-72
2021/05/09 00:03:54;;;;;;;2.72;1.70;;;;;;;11.46;93.32;97553.91;5103591;28;20040;-73
2021/05/09 00:06:20;;;;;;;8.52;2.40;;;;;;;11.52;93.50;97555.41;5098665;28;20545;-73
2021/05/09 00:08:46;;;;;;;8.70;2.42;;;;;;;11.52;92.76;97550.03;5091680;28;20032;-73
2021/05/09 00:11:12;;;;;;;5.90;2.08;;;;;;;11.52;93.21;97550.81;5104233;28;20077;-73
2021/05/09 00:13:38;;;;;;;3.50;1.90;;;;;;;11.55;92.81;97547.50;4739659;28;10000619;-74
2021/05/09 00:16:04;;;;;;;6.10;2.30;;;;;;;11.50;93.07;97544.13;5096449;28;20032;-74
2021/05/09 00:18:30;;;;;;;6.38;3.05;;;;;;;11.48;93.22;97539.03;5108308;28;20031;-74
2021/05/09 00:20:56;;;;;;;6.55;2.28;;;;;;;11.47;93.49;97539.31;5106955;28;20114;-73
2021/05/09 00:23:23;;;;;;;4.57;2.40;;;;;;;11.45;93.33;97544.22;5104464;28;20028;-73
2021/05/09 00:25:49;;;;;;;7.25;1.92;;;;;;;11.44;93.67;97535.34;5108095;28;20040;-75
2021/05/09 00:28:15;;;;;;;5.03;2.35;;;;;;;11.42;93.48;97543.72;5101008;28;20042;-74
2021/05/09 00:30:40;;;;;;;6.82;2.40;;;;;;;11.47;93.63;97550.09;5101049;28;20058;-75
2021/05/09 00:33:06;;;;;;;9.57;2.35;;;;;;;11.43;93.61;97537.22;5105957;28;20084;-74
2021/05/09 00:35:31;;;;;;;7.68;2.65;;;;;;;11.43;93.97;97537.22;5099194;28;20035;-75
2021/05/09 00:37:57;;;;;;;5.97;2.45;;;;;;;11.47;93.49;97533.94;5105437;28;20024;-76
2021/05/09 00:40:22;;;;;;;10.32;2.53;;;;;;;11.48;93.22;97532.81;5101010;28;20078;-75
2021/05/09 00:42:48;;;;;;;11.40;2.60;;;;;;;11.49;93.50;97521.75;5104555;28;20097;-75
2021/05/09 00:45:14;;;;;;;10.43;3.08;;;;;;;11.47;93.47;97523.97;5105052;28;20073;-74
2021/05/09 00:47:41;;;;;;;6.35;2.67;;;;;;;11.43;93.54;97520.28;5101220;28;20027;-74
2021/05/09 00:50:07;;;;;;;13.52;3.55;;;;;;;11.40;94.04;97518.19;5103114;28;20059;-72
2021/05/09 00:52:36;;;;;;;11.73;3.45;;;;;;;11.38;93.90;97517.69;5100879;28;20489;-71
2021/05/09 00:55:07;;;;;;;10.35;3.22;;;;;;;11.34;94.35;97524.78;5103100;28;20051;-71
2021/05/09 00:57:35;;;;;;;9.40;2.95;;;;;;;11.35;94.24;97519.06;5096173;28;20144;-73
2021/05/09 01:00:06;;;;;;;9.63;3.20;;;;;;;11.38;94.42;97507.69;5102233;28;20392;-72
2021/05/09 01:02:32;;;;;;;6.10;2.50;;;;;;;11.40;94.22;97502.00;5102218;28;20042;-72
2021/05/09 01:04:58;;;;;;;6.40;2.72;;;;;;;11.38;94.57;97505.00;5107242;28;20485;-72
2021/05/09 01:07:25;;;;;;;5.15;2.22;;;;;;;11.38;94.30;97501.53;5100743;28;20050;-72
2021/05/09 01:09:52;;;;;;;8.68;2.70;;;;;;;11.35;94.25;97499.44;5100940;28;20628;-72
2021/05/09 01:12:17;;;;;;;3.92;2.00;;;;;;;11.36;94.57;97504.50;5102472;28;20122;-74
2021/05/09 01:14:43;;;;;;;4.45;2.08;;;;;;;11.33;94.79;97505.09;5099177;28;20034;-73
2021/05/09 01:17:10;;;;;;;8.80;2.08;;;;;;;11.32;94.26;97500.03;5105114;28;20039;-73
2021/05/09 01:19:36;;;;;;;3.85;1.98;;;;;;;11.32;94.56;97494.66;5106504;28;20084;-73
2021/05/09 01:22:14;;;;;;;3.75;2.17;;;;;;;11.33;94.38;97488.16;5100968;28;20042;-73
2021/05/09 01:24:40;;;;;;;6.68;2.20;;;;;;;11.28;94.58;97478.28;5101006;28;20027;-73
2021/05/09 01:27:06;;;;;;;4.13;1.85;;;;;;;11.32;94.33;97475.78;5100223;28;20024;-73
2021/05/09 01:29:34;;;;;;;5.25;1.98;;;;;;;11.32;94.53;97486.56;5105997;28;20057;-73
2021/05/09 01:32:00;;;;;;;4.88;1.75;;;;;;;11.30;94.24;97478.75;5097744;28;20024;-73
2021/05/09 01:34:33;;;;;;;3.97;1.48;;;;;;;11.32;94.15;97481.16;5099009;28;20123;-73
2021/05/09 01:36:59;;;;;;;2.92;1.45;;;;;;;11.32;94.16;97465.78;5099045;28;20531;-74
2021/05/09 01:39:25;;;;;;;2.38;1.25;;;;;;;11.33;93.82;97469.28;5102673;28;20032;-73
2021/05/09 01:41:50;;;;;;;11.35;2.00;;;;;;;11.34;93.85;97470.88;5107967;28;20096;-73
2021/05/09 01:44:16;;;;;;;4.57;1.55;;;;;;;11.35;93.96;97472.47;5097774;28;20036;-73
2021/05/09 01:46:42;;;;;;;2.67;1.70;;;;;;;11.36;93.77;97471.38;5104465;28;20384;-73
2021/05/09 01:49:07;;;;;;;8.55;2.13;;;;;;;11.35;93.89;97478.66;5101763;28;20381;-74
2021/05/09 01:51:33;;;;;;;6.35;2.05;;;;;;;11.37;93.53;97478.38;5105066;28;20505;-74
2021/05/09 01:53:58;;;;;;;4.43;2.17;;;;;;;11.40;93.51;97475.06;5106580;28;20055;-73
2021/05/09 01:56:24;;;;;;;5.88;2.40;;;;;;;11.40;93.03;97472.38;5110460;27;20103;-73
2021/05/09 01:58:49;;;;;;;7.13;2.70;;;;;;;11.37;93.25;97459.50;5103847;28;20028;-72
2021/05/09 02:01:15;;;;;;;4.85;2.20;;;;;;;11.37;93.63;97467.59;5109269;28;20552;-73
2021/05/09 02:03:41;;;;;;;6.32;2.50;;;;;;;11.37;93.14;97454.09;5107478;28;20059;-73
2021/05/09 02:06:06;;;;;;;6.75;2.85;;;;;;;11.38;93.54;97455.69;5108965;28;20133;-73
2021/05/09 02:08:32;;;;;;;6.78;3.08;;;;;;;11.37;93.37;97446.03;5104338;28;20028;-74
2021/05/09 02:10:57;;;;;;;5.70;3.40;;;;;;;11.36;93.72;97445.22;5107577;28;20031;-73
2021/05/09 02:13:23;;;;;;;8.32;3.30;;;;;;;11.33;93.90;97448.50;5103732;28;20032;-73
2021/05/09 02:15:49;;;;;;;4.25;2.95;;;;;;;11.33;93.83;97443.13;5100328;28;20233;-73
2021/05/09 02:18:14;;;;;;;10.05;2.70;;;;;;;11.35;93.63;97453.63;5106754;28;20034;-73
2021/05/09 02:20:40;;;;;;;4.40;2.25;;;;;;;11.37;93.61;97440.63;5099907;28;20043;-73
2021/05/09 02:23:06;;;;;;;5.90;2.58;;;;;;;11.35;93.47;97443.63;5095916;28;20036;-73
2021/05/09 02:25:31;;;;;;;5.80;2.35;;;;;;;11.33;93.29;97432.34;5108551;28;20031;-74
2021/05/09 02:27:57;;;;;;;7.60;2.45;;;;;;;11.33;93.62;97442.34;5101611;28;20689;-73
2021/05/09 02:30:22;;;;;;;6.95;2.17;;;;;;;11.30;93.73;97445.66;5103151;28;20472;-74
2021/05/09 02:32:48;;;;;;;4.97;2.35;;;;;;;11.33;93.75;97443.13;5092377;28;20036;-73
2021/05/09 02:35:14;;;;;;;4.93;2.10;;;;;;;11.34;93.45;97441.25;5098377;28;20023;-73
2021/05/09 02:37:40;;;;;;;2.80;1.83;;;;;;;11.31;93.47;97444.53;5110291;28;20038;-73
2021/05/09 02:40:07;;;;;;;3.50;1.90;;;;;;;11.31;93.71;97445.31;5102825;28;20366;-71
2021/05/09 02:42:33;;;;;;;3.80;1.65;;;;;;;11.30;93.48;97454.50;5101758;28;20058;-71
2021/05/09 02:44:59;;;;;;;5.57;1.83;;;;;;;11.30;93.79;97443.72;5103634;28;20606;-70
2021/05/09 02:47:28;;;;;;;4.90;1.80;;;;;;;11.27;94.16;97449.72;5103395;28;20024;-71
2021/05/09 02:49:58;;;;;;;2.30;1.60;;;;;;;11.30;93.60;97443.72;5095293;28;20122;-70
2021/05/09 02:52:24;;;;;;;3.72;1.63;;;;;;;11.32;93.83;97435.34;5096743;28;20048;-69
2021/05/09 02:54:50;;;;;;;3.88;1.20;;;;;;;11.33;93.71;97447.72;5108524;28;20442;-69
2021/05/09 02:57:16;;;;;;;2.58;1.05;;;;;;;11.33;93.58;97453.13;5097783;28;20039;-68
2021/05/09 02:59:42;;;;;;;4.30;1.30;;;;;;;11.28;93.78;97448.63;5077508;28;20043;-69
2021/05/09 03:02:08;;;;;;;2.70;1.25;;;;;;;11.27;94.09;97447.03;5081987;28;20024;-70
2021/05/09 03:04:34;;;;;;;1.75;1.20;;;;;;;11.26;94.46;97448.94;5097209;28;20032;-69
2021/05/09 03:06:59;;;;;;;2.00;1.15;;;;;;;11.24;94.37;97437.69;5103897;28;20366;-70
2021/05/09 03:09:25;;;;;;;2.42;1.40;;;;;;;11.27;94.08;97423.59;5108068;28;20477;-69
2021/05/09 03:17:35;;;;;;;3.00;1.30;;;;;;;11.23;93.95;97432.56;4990449;23;20530;-72
2021/05/09 03:20:01;;;;;;;2.20;1.15;;;;;;;11.21;94.31;97435.59;4951786;28;20036;-72
2021/05/09 03:22:28;;;;;;;4.45;1.40;;;;;;;11.21;94.00;97440.16;4949556;28;20038;-73
2021/05/09 03:24:53;;;;;;;3.50;1.52;;;;;;;11.24;93.66;97426.09;4940220;28;20039;-72
2021/05/09 03:27:19;;;;;;;1.30;0.90;;;;;;;11.22;94.08;97396.75;4945779;28;20035;-71
2021/05/09 03:29:45;;;;;;;2.00;1.00;;;;;;;11.18;94.22;97387.69;4949313;28;20030;-72
2021/05/09 03:32:10;;;;;;;4.15;0.98;;;;;;;11.17;94.15;97375.34;4940484;28;20043;-72
2021/05/09 03:34:36;;;;;;;3.50;0.85;;;;;;;11.19;93.98;97362.34;4951065;28;20062;-72
2021/05/09 03:37:02;;;;;;;1.63;0.90;;;;;;;11.15;93.80;97365.94;4949412;28;20039;-72
2021/05/09 03:39:28;;;;;;;1.83;0.73;;;;;;;11.09;94.25;97366.06;4940705;28;20392;-72
2021/05/09 03:41:54;;;;;;;1.42;0.88;;;;;;;11.05;94.24;97378.53;4945182;28;20044;-72
2021/05/09 03:44:19;;;;;;;2.97;0.98;;;;;;;11.00;94.19;97389.44;4961596;28;20046;-73
2021/05/09 03:46:46;;;;;;;1.45;0.80;;;;;;;10.99;94.30;97406.69;4947483;28;20122;-72
2021/05/09 03:49:12;;;;;;;2.67;1.05;;;;;;;10.98;94.41;97408.59;4951667;28;20118;-73
2021/05/09 03:51:38;;;;;;;2.35;1.10;;;;;;;10.97;94.43;97414.28;4979360;28;20039;-72
2021/05/09 03:54:04;;;;;;;2.90;1.30;;;;;;;11.06;94.60;97417.84;4944988;28;20046;-73
2021/05/09 03:56:30;;;;;;;3.88;1.20;;;;;;;11.07;93.93;97405.19;4948653;28;20035;-73
2021/05/09 03:58:55;;;;;;;2.40;1.08;;;;;;;11.10;94.27;97408.06;4956483;28;20039;-73
2021/05/09 04:01:21;;;;;;;8.05;1.75;;;;;;;11.09;94.04;97397.59;4957692;28;20034;-72
2021/05/09 04:03:47;;;;;;;1.50;1.15;;;;;;;11.17;93.87;97410.34;4943515;28;20488;-72
2021/05/09 04:06:12;;;;;;;2.28;1.10;;;;;;;11.22;93.67;97395.97;4949931;28;20062;-73
2021/05/09 04:08:39;;;;;;;1.52;1.15;;;;;;;11.16;93.55;97386.41;4950396;28;20027;-73
2021/05/09 04:11:06;;;;;;;2.95;1.27;;;;;;;11.16;93.17;97386.41;4946703;28;20051;-72
2021/05/09 04:13:48;;;;;;;2.85;1.42;;;;;;;11.20;92.75;97385.50;4944468;28;20055;-72
2021/05/09 04:16:14;;;;;;;3.03;1.48;;;;;;;11.13;93.27;97402.06;4955366;28;20049;-72
2021/05/09 04:18:40;;;;;;;3.00;1.65;;;;;;;11.09;93.09;97398.38;4959771;28;20035;-72
2021/05/09 04:21:06;;;;;;;5.15;1.58;;;;;;;11.08;93.01;97382.53;4934941;28;20118;-73
2021/05/09 04:23:31;;;;;;;6.75;2.00;;;;;;;11.09;93.36;97384.91;4947214;28;20441;-73
2021/05/09 04:25:57;;;;;;;1.67;1.55;;;;;;;11.08;93.15;97391.41;4943673;28;20496;-73
2021/05/09 04:28:23;;;;;;;2.72;1.95;;;;;;;11.04;93.66;97393.13;4948071;28;20031;-72
2021/05/09 04:30:49;;;;;;;4.22;2.40;;;;;;;11.02;93.81;97402.63;4941032;28;20110;-73
2021/05/09 04:33:15;;;;;;;4.45;2.47;;;;;;;11.05;93.75;97404.69;4947756;28;20427;-73
2021/05/09 04:35:43;;;;;;;3.90;2.42;;;;;;;11.04;93.81;97416.56;4944508;28;20031;-72
2021/05/09 04:38:10;;;;;;;5.53;3.22;;;;;;;11.03;93.89;97426.53;4942763;28;20125;-71
2021/05/09 04:40:37;;;;;;;4.32;3.15;;;;;;;11.03;93.16;97417.69;4947941;28;20047;-72
2021/05/09 04:43:10;;;;;;;5.40;3.17;;;;;;;11.03;93.56;97413.06;4945938;28;20635;-71
2021/05/09 04:45:36;;;;;;;;;;;;;;;11.06;93.42;97419.75;4941108;28;20138;-71
2021/05/09 04:48:03;;;;;;;5.22;3.20;;;;;;;11.03;94.16;97413.06;4950933;28;20379;-70
2021/05/09 04:50:29;;;;;;;8.75;3.50;;;;;;;10.97;94.21;97419.66;4952704;28;20026;-71
2021/05/09 04:52:55;;;;;;;4.07;2.50;;;;;;;11.03;94.15;97407.69;4944919;28;20482;-73
2021/05/09 04:55:21;;;;;;;5.55;2.10;;;;;;;10.98;94.45;97424.75;4951546;28;20040;-71
2021/05/09 04:57:46;;;;;;;8.18;2.40;;;;;;;10.96;94.54;97445.00;4950842;28;20042;-71
2021/05/09 05:00:14;;;;;;;8.23;2.25;;;;;;;10.93;94.12;97453.69;4950778;28;20035;-72
2021/05/09 05:02:47;;;;;;;2.35;1.10;;;;;;;10.90;93.62;97460.50;4947142;28;20054;-71
2021/05/09 05:05:14;;;;;;;2.35;0.95;;;;;;;10.89;93.61;97461.59;4945107;28;20035;-71
2021/05/09 05:07:40;;;;;;;6.65;0.90;;;;;;;10.84;93.15;97457.09;4948080;28;20063;-71
2021/05/09 05:10:06;;;;;;;2.13;0.80;;;;;;;10.81;92.94;97443.44;4945985;28;20445;-71
2021/05/09 05:12:32;;;;;;;4.68;0.75;;;;;;;10.74;91.25;97429.59;4943943;28;20122;-71
2021/05/09 05:14:57;;;;;;;0.63;0.47;;;;;;;10.65;90.62;97424.09;4943891;28;20122;-71
2021/05/09 05:17:23;;;;;;;4.95;0.50;;;;;;;10.62;89.72;97435.47;4946270;28;20134;-72
2021/05/09 05:19:48;;;;;;;4.97;0.68;;;;;;;10.54;90.71;97437.75;4944217;28;20032;-73
2021/05/09 05:22:14;;;;;;;2.00;0.57;;;;;;;10.51;90.72;97424.91;4943961;28;20046;-72
2021/05/09 05:24:40;;;;;;;1.08;0.50;;;;;;;10.56;90.79;97433.97;4939704;28;20043;-72
2021/05/09 05:27:06;;;;;;;3.42;0.52;;;;;;;10.58;90.78;97418.31;4943145;28;20577;-72
2021/05/09 05:29:31;;;;;;;1.73;0.50;;;;;;;10.56;90.82;97417.81;4955018;28;20143;-72
2021/05/09 05:31:57;;;;;;;0.65;0.50;;;;;;;10.52;90.83;97412.22;4943242;28;20768;-72
2021/05/09 05:34:22;;;;;;;0.57;0.50;;;;;;;10.48;91.48;97401.28;4947145;28;20042;-72
2021/05/09 05:36:48;;;;;;;3.60;0.60;;;;;;;10.45;91.00;97406.44;4950601;28;20038;-72
2021/05/09 05:39:15;;;;;;;1.58;0.50;;;;;;;10.48;89.88;97408.53;4943906;28;20396;-73
2021/05/09 05:41:40;;;;;;;2.42;0.50;;;;;;;10.45;89.96;97425.28;4948862;28;20114;-71
2021/05/09 05:44:07;;;;;;;1.25;0.40;;;;;;;10.44;90.52;97423.69;4943971;28;20042;-72
2021/05/09 05:46:33;;;;;;;0.80;0.40;;;;;;;10.46;91.06;97422.31;4952027;28;20062;-72
2021/05/09 05:48:59;;;;;;;2.83;0.32;;;;;;;10.51;91.00;97427.59;4947774;28;20042;-73
2021/05/09 05:51:24;;;;;;;1.00;0.47;;;;;;;10.50;91.21;97435.94;4961299;28;20035;-74
2021/05/09 05:53:55;;;;;;;1.40;0.50;;;;;;;10.51;91.17;97432.97;4943533;28;20095;-72
2021/05/09 05:56:20;;;;;;;3.25;0.63;;;;;;;10.51;90.63;97443.72;4944277;28;20032;-73
2021/05/09 05:58:46;;;;;;;1.20;0.40;;;;;;;10.53;89.43;97440.72;4946971;28;20035;-71
2021/05/09 06:01:11;;;;;;;0.52;0.30;;;;;;;10.50;89.02;97442.16;4946813;28;20040;-72
2021/05/09 06:03:37;;;;;;;2.03;0.40;;;;;;;10.43;89.40;97449.00;4949975;28;20043;-71
2021/05/09 06:06:04;;;;;;;0.45;0.35;;;;;;;10.42;89.22;97444.72;4943787;28;20111;-71
2021/05/09 06:08:30;;;;;;;1.30;0.50;;;;;;;10.44;88.15;97437.13;4944370;28;20038;-71
2021/05/09 06:10:55;;;;;;;1.40;0.47;;;;;;;10.47;88.43;97447.31;4940247;28;20031;-72
2021/05/09 06:13:23;;;;;;;0.88;0.88;;;;;;;10.49;88.37;97448.63;4939920;28;20067;-72
2021/05/09 06:15:49;;;;;;;2.53;0.60;;;;;;;10.51;88.25;97445.63;4943174;28;20040;-71
2021/05/09 06:18:15;;;;;;;1.08;0.50;;;;;;;10.53;88.95;97456.88;4935882;28;20032;-72
2021/05/09 06:20:41;;;;;;;0.55;0.35;;;;;;;10.63;88.76;97454.03;4950854;28;20050;-71
2021/05/09 06:23:09;;;;;;;3.85;0.65;;;;;;;10.68;88.04;97453.09;4935556;28;20036;-71
2021/05/09 06:25:35;;;;;;;0.40;0.40;;;;;;;10.76;88.76;97460.47;4950552;28;20118;-71
2021/05/09 06:28:01;;;;;;;2.03;0.50;;;;;;;10.81;86.63;97479.22;4946834;28;20619;-71
2021/05/09 06:30:27;;;;;;;0.73;0.32;;;;;;;10.68;86.94;97474.66;4945255;28;20032;-71
2021/05/09 06:32:53;;;;;;;2.10;0.40;;;;;;;10.67;87.54;97464.97;4944488;28;20448;-71
2021/05/09 06:35:18;;;;;;;2.17;0.50;;;;;;;10.59;86.64;97473.75;4929522;28;20413;-72
2021/05/09 06:37:44;;;;;;;2.70;0.40;;;;;;;10.50;86.31;97470.94;4939402;28;20039;-72
2021/05/09 06:40:10;;;;;;;1.25;0.35;;;;;;;10.43;85.97;97467.84;4947818;28;20035;-72
2021/05/09 06:42:36;;;;;;;1.42;0.68;;;;;;;10.48;86.19;97483.88;4936571;28;20111;-73
2021/05/09 06:45:11;;;;;;;0.40;0.30;;;;;;;10.63;85.67;97472.06;4936010;28;20496;-73
2021/05/09 06:47:37;;;;;;;1.05;0.40;;;;;;;10.60;86.02;97478.84;4934688;28;20043;-74
2021/05/09 06:50:03;;;;;;;1.77;0.43;;;;;;;10.60;85.58;97467.25;4949763;28;20388;-74
2021/05/09 06:52:28;;;;;;;6.82;0.98;;;;;;;10.61;85.38;97466.16;4951030;28;20039;-75
2021/05/09 06:54:54;;;;;;;2.20;0.50;;;;;;;10.62;84.84;97473.16;4950489;28;20472;-74
2021/05/09 06:57:19;;;;;;;3.42;0.43;;;;;;;10.62;82.92;97484.72;4946599;28;20429;-74
2021/05/09 06:59:45;;;;;;;1.55;0.57;;;;;;;10.61;82.57;97480.44;4943112;28;20439;-74
2021/05/09 07:02:11;;;;;;;7.25;0.70;;;;;;;10.58;82.54;97483.69;4950630;28;20078;-74
2021/05/09 07:04:36;;;;;;;1.65;0.52;;;;;;;10.62;83.91;97500.88;4951327;28;20094;-75
2021/05/09 07:07:02;;;;;;;3.28;0.70;;;;;;;10.66;83.72;97491.09;4947576;28;20039;-73
2021/05/09 07:09:27;;;;;;;5.72;0.70;;;;;;;10.71;84.17;97503.66;4944643;28;20031;-75
2021/05/09 07:11:53;;;;;;;2.85;0.50;;;;;;;10.69;83.55;97503.97;4948041;28;20114;-75
2021/05/09 07:14:19;;;;;;;2.28;0.57;;;;;;;10.72;83.44;97507.94;4940144;28;20133;-75
2021/05/09 07:16:44;;;;;;;1.98;0.60;;;;;;;10.79;83.16;97491.41;4944996;28;20102;-70
2021/05/09 07:19:10;;;;;;;1.63;0.47;;;;;;;10.84;82.22;97483.22;4948031;28;20035;-71
2021/05/09 07:21:40;;;;;;;2.15;0.50;;;;;;;10.98;82.72;97491.28;4943627;28;20047;-72
2021/05/09 07:24:06;;;;;;;2.22;0.63;;;;;;;11.06;83.40;97497.88;4941533;28;20039;-73
2021/05/09 07:26:32;;;;;;;1.77;0.70;;;;;;;11.03;81.79;97509.25;4937617;28;20040;-69
2021/05/09 07:28:57;;;;;;;3.63;0.60;;;;;;;11.00;82.22;97512.56;4945113;28;20091;-68
2021/05/09 07:31:26;;;;;;;2.28;0.60;;;;;;;11.00;83.72;97520.63;4680437;28;10001126;-70
2021/05/09 07:33:51;;;;;;;5.95;0.75;;;;;;;10.97;83.03;97528.22;4932981;28;20271;-71
2021/05/09 07:36:17;;;;;;;1.08;0.55;;;;;;;10.92;82.21;97538.28;4934771;28;20174;-71
2021/05/09 07:38:42;;;;;;;2.28;0.70;;;;;;;10.91;83.99;97528.59;4925566;28;20122;-71
2021/05/09 07:41:08;;;;;;;3.90;0.82;;;;;;;10.88;83.42;97532.69;4934441;28;20043;-71
2021/05/09 07:43:34;;;;;;;7.70;0.90;;;;;;;10.81;82.74;97524.22;4934386;28;20055;-71
2021/05/09 07:46:00;;;;;;;6.25;0.70;;;;;;;10.81;82.25;97524.22;4935266;28;20126;-71
2021/05/09 07:48:26;;;;;;;3.28;0.90;;;;;;;10.87;81.06;97527.59;4941956;28;20505;-72
2021/05/09 07:50:52;;;;;;;2.53;0.80;;;;;;;10.91;81.60;97523.22;4940039;28;20050;-72
2021/05/09 07:53:18;;;;;;;5.50;0.95;;;;;;;10.94;81.30;97517.22;4941806;28;20043;-72
2021/05/09 07:55:45;;;;;;;3.03;1.20;;;;;;;11.01;81.06;97509.53;4939978;28;20066;-73
2021/05/09 07:58:21;;;;;;;5.85;0.90;;;;;;;11.15;82.69;97496.06;4941198;28;20024;-73
2021/05/09 08:00:48;;;;;;;4.00;0.63;;;;;;;11.27;79.94;97501.75;4941082;28;20098;-73
2021/05/09 08:03:14;;;;;;;3.60;0.82;;;;;;;11.37;80.28;97506.09;4944345;28;20042;-73
2021/05/09 08:05:40;;;;;;;1.65;0.57;;;;;;;11.26;78.48;97512.81;4942801;28;20035;-75
2021/05/09 08:08:10;;;;;;;5.05;0.90;;;;;;;11.35;80.01;97507.50;4935623;28;20495;-73
2021/05/09 08:10:39;;;;;;;3.50;0.90;;;;;;;11.50;79.52;97517.97;4938911;28;20465;-71
2021/05/09 08:13:07;;;;;;;4.68;0.90;;;;;;;11.56;77.20;97497.88;4939096;28;20047;-73
2021/05/09 08:15:33;;;;;;;5.30;0.85;;;;;;;11.73;78.32;97509.13;4938206;28;20036;-74
2021/05/09 08:17:59;;;;;;;4.47;0.90;;;;;;;11.84;77.75;97516.66;4935442;28;20035;-74
2021/05/09 08:20:25;;;;;;;6.55;1.20;;;;;;;12.06;77.61;97508.91;4944016;28;20437;-74
2021/05/09 08:22:51;;;;;;;3.88;0.90;;;;;;;12.22;78.07;97539.81;4942851;28;20032;-75
2021/05/09 08:25:17;;;;;;;4.03;0.93;;;;;;;12.24;77.61;97528.69;4945383;28;20046;-75
2021/05/09 08:27:45;;;;;;;5.13;1.20;;;;;;;12.36;77.27;97526.22;4932507;28;20035;-75
2021/05/09 08:30:11;;;;;;;3.60;1.00;;;;;;;12.40;74.78;97521.84;4936211;28;20042;-75
2021/05/09 08:32:37;;;;;;;5.53;1.08;;;;;;;12.29;74.69;97518.59;4947093;28;20102;-75
2021/05/09 08:35:05;;;;;;;7.10;1.50;;;;;;;12.22;74.03;97530.91;4942923;28;20480;-74
2021/05/09 08:37:31;;;;;;;3.97;1.10;;;;;;;12.27;74.10;97531.59;4952762;28;20031;-74
2021/05/09 08:39:57;;;;;;;5.22;0.90;;;;;;;12.24;74.94;97537.59;4949216;28;20392;-75
2021/05/09 08:42:22;;;;;;;3.83;1.38;;;;;;;12.30;73.36;97539.06;4942133;28;20469;-74
2021/05/09 08:44:49;;;;;;;12.88;1.58;;;;;;;12.28;74.77;97541.28;4942653;28;20066;-75
2021/05/09 08:47:36;;;;;;;4.47;1.10;;;;;;;12.48;75.60;97543.78;4945703;28;20031;-75
2021/05/09 08:50:03;;;;;;;7.00;1.58;;;;;;;12.37;73.95;97557.53;4946101;28;20118;-75
2021/05/09 08:52:29;;;;;;;4.80;1.10;;;;;;;12.44;73.69;97555.22;4944037;28;20043;-74
2021/05/09 08:54:54;;;;;;;6.03;1.50;;;;;;;12.55;73.71;97546.84;4945328;28;20035;-74
2021/05/09 08:57:20;;;;;;;9.30;1.02;;;;;;;12.61;73.06;97548.31;4950097;28;20059;-75
2021/05/09 08:59:45;;;;;;;5.53;1.13;;;;;;;12.43;74.01;97540.13;4948128;28;20108;-74
2021/05/09 09:02:14;;;;;;;10.77;1.38;;;;;;;12.38;74.27;97542.13;4947225;28;20082;-74
2021/05/09 09:04:45;;;;;;;4.43;1.00;;;;;;;12.39;73.59;97543.72;4943459;28;20086;-75
2021/05/09 09:07:12;;;;;;;10.93;1.20;;;;;;;12.58;72.55;97530.81;4945643;28;20032;-74
2021/05/09 09:09:41;;;;;;;6.38;1.30;;;;;;;12.74;72.31;97531.22;4943049;28;20051;-74
2021/05/09 09:12:08;;;;;;;5.22;1.13;;;;;;;12.86;71.60;97530.59;4947708;28;20035;-74
2021/05/09 09:14:34;;;;;;;7.35;1.50;;;;;;;13.07;71.69;97518.44;4943434;28;20039;-74
2021/05/09 09:17:17;;;;;;;10.38;1.42;;;;;;;13.09;69.99;97533.22;4936789;28;20035;-74
2021/05/09 09:20:07;;;;;;;7.47;1.27;;;;;;;12.81;70.37;97524.56;4943874;28;20040;-74
2021/05/09 09:22:55;;;;;;;8.88;2.05;;;;;;;12.83;69.99;97525.84;4939119;28;20070;-74
2021/05/09 09:25:33;;;;;;;6.65;1.38;;;;;;;13.15;71.41;97523.88;4943260;28;20032;-75
2021/05/09 09:28:00;;;;;;;10.00;1.60;;;;;;;13.24;67.50;97523.91;4940077;28;20058;-74
2021/05/09 09:30:28;;;;;;;8.70;1.65;;;;;;;13.20;66.77;97519.41;4945944;28;20046;-73
2021/05/09 09:33:15;;;;;;;5.40;1.45;;;;;;;13.39;66.23;97516.44;4948544;28;20492;-75
2021/05/09 09:35:45;;;;;;;6.18;1.40;;;;;;;13.49;66.34;97532.41;4939753;28;20027;-73
2021/05/09 09:38:33;;;;;;;8.55;1.70;;;;;;;13.72;66.21;97524.16;4940507;28;20114;-74
2021/05/09 09:41:12;;;;;;;8.30;1.65;;;;;;;13.72;64.78;97533.06;4945357;28;20038;-74
2021/05/09 09:43:38;;;;;;;6.90;1.60;;;;;;;13.78;66.06;97535.63;4941462;28;20068;-73
2021/05/09 09:46:04;;;;;;;7.72;1.08;;;;;;;13.71;64.25;97522.56;4940121;28;20023;-73
2021/05/09 09:48:38;;;;;;;6.10;1.27;;;;;;;13.59;64.31;97515.88;4940482;28;20066;-73
2021/05/09 09:51:04;;;;;;;7.80;1.42;;;;;;;13.46;65.64;97511.41;4951474;28;20540;-73
2021/05/09 09:53:35;;;;;;;9.55;2.15;;;;;;;13.51;66.31;97515.88;4937235;28;20235;-73
2021/05/09 09:56:01;;;;;;;8.25;1.80;;;;;;;13.37;68.18;97519.47;4938946;28;20508;-73
2021/05/09 09:58:45;;;;;;;6.45;1.40;;;;;;;13.51;66.19;97515.88;4940458;28;20027;-73
2021/05/09 10:01:13;;;;;;;8.93;1.42;;;;;;;13.72;66.13;97516.03;4936986;28;20051;-74
2021/05/09 10:03:39;;;;;;;6.75;1.20;;;;;;;13.85;66.20;97512.38;4939774;28;20134;-75
2021/05/09 10:06:06;;;;;;;5.90;1.15;;;;;;;13.90;65.12;97498.69;4943103;28;20060;-74
2021/05/09 10:08:33;;;;;;;4.55;1.02;;;;;;;14.26;66.11;97499.44;4935527;28;20039;-74
2021/05/09 10:11:04;;;;;;;13.40;1.73;;;;;;;14.79;63.89;97493.84;4928676;28;20046;-74
2021/05/09 10:13:31;;;;;;;5.53;0.80;;;;;;;14.76;64.26;97497.22;4945696;28;20032;-74
2021/05/09 10:15:58;;;;;;;9.07;1.20;;;;;;;15.15;64.64;97495.28;4938190;28;20035;-74
2021/05/09 10:18:25;;;;;;;5.53;1.25;;;;;;;15.27;63.05;97496.50;4939064;28;20466;-74
2021/05/09 10:20:51;;;;;;;4.50;0.85;;;;;;;15.39;60.68;97496.59;4945074;28;20142;-74
2021/05/09 10:23:20;;;;;;;2.80;0.80;;;;;;;15.24;61.63;97497.94;4944504;28;20038;-73
2021/05/09 10:25:48;;;;;;;5.07;1.35;;;;;;;15.04;61.73;97489.44;4946468;28;20046;-74
2021/05/09 10:28:16;;;;;;;5.10;1.20;;;;;;;14.92;61.92;97486.63;4943927;28;20032;-74
2021/05/09 10:30:56;;;;;;;5.50;1.00;;;;;;;14.92;62.09;97484.72;4937632;28;20031;-74
2021/05/09 10:33:42;;;;;;;4.80;1.15;;;;;;;14.52;62.46;97492.34;4945991;28;20036;-74
2021/05/09 10:36:10;;;;;;;7.72;1.60;;;;;;;14.49;62.49;97491.06;4940604;28;20039;-73
2021/05/09 10:39:11;;;;;;;8.98;1.58;;;;;;;14.66;63.38;97490.22;4940831;28;20039;-74
2021/05/09 10:41:59;;;;;;;6.03;1.38;;;;;;;15.01;61.74;97484.69;4945626;28;20090;-74
2021/05/09 10:44:37;;;;;;;4.43;1.40;;;;;;;15.11;61.89;97483.53;4937668;28;20058;-70
2021/05/09 10:47:10;;;;;;;4.20;1.10;;;;;;;15.55;60.91;97485.91;4943219;28;20138;-70
2021/05/09 10:49:36;;;;;;;3.58;0.88;;;;;;;15.29;61.69;97486.13;4940474;28;20063;-71
2021/05/09 10:52:40;;;;;;;6.45;1.35;;;;;;;15.05;60.92;97468.56;4948165;28;20063;-70
2021/05/09 10:55:35;;;;;;;6.30;1.00;;;;;;;14.89;61.24;97465.63;4935491;28;20078;-70
2021/05/09 10:58:01;;;;;;;6.10;1.00;;;;;;;14.73;62.88;97451.81;4946468;28;20499;-70
2021/05/09 11:00:27;;;;;;;3.75;1.10;;;;;;;14.80;62.10;97452.09;4939016;28;20122;-70
2021/05/09 11:02:53;;;;;;;8.27;1.77;;;;;;;14.97;60.23;97459.34;4943819;28;20039;-70
2021/05/09 11:05:20;;;;;;;10.18;1.25;;;;;;;15.06;58.83;97456.59;4946273;28;20110;-71
2021/05/09 11:07:47;;;;;;;10.13;2.03;;;;;;;15.05;59.20;97453.09;4940350;28;20039;-70
2021/05/09 11:10:31;;;;;;;5.32;1.25;;;;;;;15.11;60.36;97456.41;4940836;28;20028;-71
2021/05/09 11:13:03;;;;;;;;;;;;;;;15.19;61.24;97452.84;4933843;28;20514;-70
2021/05/09 11:15:29;;;;;;;6.60;1.20;;;;;;;15.06;59.92;97451.19;4943022;28;19941;-71
2021/05/09 11:17:55;;;;;;;4.43;1.20;;;;;;;14.84;59.54;97444.91;4937498;28;20402;-71
2021/05/09 11:20:22;;;;;;;8.52;1.33;;;;;;;14.78;59.52;97457.84;4954475;28;20042;-71
2021/05/09 11:22:48;;;;;;;6.70;1.50;;;;;;;14.95;57.81;97447.22;4941609;28;20043;-71
2021/05/09 11:25:15;;;;;;;7.25;1.10;;;;;;;14.89;58.48;97442.00;4941507;28;20065;-71
2021/05/09 11:27:45;;;;;;;7.28;1.55;;;;;;;15.01;58.85;97444.00;4959658;28;20038;-71
2021/05/09 11:30:11;;;;;;;11.40;1.52;;;;;;;15.34;59.77;97439.81;4942015;28;20039;-71
2021/05/09 11:32:37;;;;;;;5.22;1.30;;;;;;;15.55;56.70;97428.16;4940825;28;20035;-71
2021/05/09 11:35:04;;;;;;;4.75;1.25;;;;;;;15.78;55.71;97432.09;4949808;28;20495;-70
2021/05/09 11:37:35;;;;;;;9.88;1.65;;;;;;;16.02;54.82;97422.47;4944486;28;20405;-71
2021/05/09 11:40:05;;;;;;;5.55;1.60;;;;;;;16.23;55.16;97424.34;4938433;28;20379;-71
2021/05/09 11:42:31;;;;;;;8.23;1.52;;;;;;;16.24;54.35;97421.28;4944887;28;20205;-71